Aviation Digital Data Service (ADDS)

Output produced by METARs form (0806 UTC 28 March 2017)
found at http://www.aviationweather.gov/adds/metars/
 
SEGU 280800Z 23007KT 9999 FEW006 BKN100 27/24 Q1009 NOSIG RMK A2981
SEGU 280425Z 2806/2906 24005KT 9999 BKN020 BKN090 
     TEMPO 2809/2812 8000 RA FEW010 BKN020 OVC080 
     FM281300 04006KT 9999 SCT023 BKN100 
     FM281800 06004KT 9999 SCT026 SCT100 
     TEMPO 2822/2824 6000 TSRA SCT020CB BKN023 BKN100 
     FM290000 21008KT 9999 BKN020 BKN100 TX32/2820Z TN24/2811Z
       
SEMT 280800Z 00000KT 9999 SCT026 SCT120 27/25 Q1010 RMK A2984
SEMT 280425Z 2806/2906 20004KT 9999 BKN026 
     FM281200 35004KT 9999 SCT023 SCT100 
     BECMG 2816/2818 33008KT 
     BECMG 2823/2901 24004KT TX31/2820Z TN24/2810Z